Time;durP1;ratioP1;P1;durP2;ratioP2;P2;SDS_P1;SDS_P2;PMS_P1;PMS_P2;Temp;Humidity;BMP_temperature;BMP_pressure;BME280_temperature;BME280_humidity;BME280_pressure;Samples;Min_cycle;Max_cycle;Signal;HPM_P1;HPM_P2
2021/04/29 00:02:51;;;;;;;;;;;;;;;;;;;;;
2021/04/29 00:10:58;;;;;;;11.57;6.90;;;13.60;88.40;;;12.67;74.38;96989.38;4973900;28;20425;-85
2021/04/29 00:18:40;;;;;;;12.15;7.20;;;13.50;89.90;;;12.77;73.02;96986.69;4977602;28;20922;-86
2021/04/29 00:28:07;;;;;;;11.77;7.30;;;13.80;88.90;;;13.05;72.38;96987.81;5101353;28;20762;-86
2021/04/29 00:30:33;;;;;;;9.68;6.97;;;13.90;88.60;;;13.08;71.93;96989.94;5101760;28;20475;-85
2021/04/29 00:33:00;;;;;;;12.48;7.13;;;13.90;88.20;;;13.09;72.50;96997.63;5101954;28;20493;-86
2021/04/29 00:35:26;;;;;;;12.68;7.65;;;13.90;88.90;;;13.07;72.26;96996.31;5101926;28;20406;-86
2021/04/29 00:37:52;;;;;;;10.65;7.65;;;13.80;89.00;;;12.95;72.68;96993.19;5104660;28;20420;-85
2021/04/29 00:40:19;;;;;;;11.40;7.32;;;13.80;89.10;;;13.04;73.00;97004.84;5106979;28;20418;-86
2021/04/29 00:42:45;;;;;;;12.10;7.95;;;13.80;89.50;;;12.97;73.42;97002.50;5106563;28;20816;-86
2021/04/29 00:45:13;;;;;;;14.50;8.07;;;13.80;89.70;;;12.98;72.86;96998.75;5106699;28;20405;-88
2021/04/29 00:47:40;;;;;;;11.85;7.22;;;13.70;89.50;;;13.02;73.01;97001.66;5107933;28;20425;-86
2021/04/29 00:50:10;;;;;;;11.38;7.85;;;13.80;89.70;;;13.03;73.74;97001.38;5096584;28;20457;-86
2021/04/29 00:52:36;;;;;;;12.40;7.00;;;13.80;90.10;;;12.86;73.47;96997.50;5111576;28;20406;-84
2021/04/29 00:55:04;;;;;;;10.70;7.15;;;13.70;89.80;;;12.94;73.65;97002.22;5097526;28;20429;-85
2021/04/29 00:57:31;;;;;;;10.30;7.13;;;13.70;90.10;;;13.00;73.64;97004.59;5097284;28;20391;-86
2021/04/29 00:59:59;;;;;;;12.80;7.28;;;13.70;90.20;;;12.93;74.28;97011.28;5103442;28;20429;-86
2021/04/29 01:02:28;;;;;;;10.65;7.65;;;13.80;90.30;;;13.00;73.59;97006.47;5101583;28;20398;-85
2021/04/29 01:05:00;;;;;;;10.57;7.38;;;13.80;90.20;;;12.97;74.32;97009.66;5101121;28;20696;-85
2021/04/29 01:07:32;;;;;;;12.93;7.55;;;13.70;90.50;;;12.86;74.58;97018.75;5100982;28;20401;-85
2021/04/29 01:10:03;;;;;;;12.65;7.30;;;13.70;90.40;;;12.89;74.97;97021.66;5101188;28;20811;-86
2021/04/29 01:12:39;;;;;;;10.73;7.03;;;13.70;90.70;;;12.99;74.46;97026.94;5082128;28;20436;-86
2021/04/29 01:15:08;;;;;;;10.05;7.13;;;13.70;90.50;;;12.99;74.03;97010.97;5101600;28;20405;-86
2021/04/29 01:17:36;;;;;;;14.05;6.75;;;13.80;90.30;;;13.02;74.03;97018.38;5099892;28;20416;-86
2021/04/29 01:20:07;;;;;;;9.93;6.75;;;13.80;90.30;;;12.96;74.52;97029.31;5100949;28;20425;-85
2021/04/29 01:22:40;;;;;;;11.07;6.82;;;13.80;90.40;;;13.06;73.93;97022.09;5081228;28;20416;-86
2021/04/29 01:25:11;;;;;;;9.20;6.28;;;13.80;90.30;;;13.17;72.90;97030.81;5100226;28;20910;-85
2021/04/29 01:27:39;;;;;;;10.05;6.00;;;13.90;89.80;;;13.08;73.11;97022.59;5100300;28;20441;-84
2021/04/29 01:30:08;;;;;;;11.23;5.95;;;13.90;89.60;;;13.11;72.87;97018.59;5100974;28;20421;-85
2021/04/29 01:32:35;;;;;;;9.25;5.68;;;13.80;89.50;;;13.16;72.67;97023.91;5100357;28;20692;-84
2021/04/29 01:35:03;;;;;;;6.72;5.03;;;14.00;89.40;;;13.15;72.18;97014.38;5099982;28;20481;-86
2021/04/29 01:37:30;;;;;;;7.43;4.85;;;13.90;88.90;;;13.24;71.56;97020.66;5099321;28;20497;-86
2021/04/29 01:39:57;;;;;;;6.18;4.82;;;13.90;88.30;;;13.14;71.89;97020.75;5082502;28;20425;-86
2021/04/29 01:42:24;;;;;;;6.90;4.35;;;14.00;88.30;;;13.10;71.60;97027.63;5101011;28;20505;-86
2021/04/29 01:44:52;;;;;;;5.53;4.75;;;13.90;87.90;;;13.36;71.60;97025.66;5083154;28;20425;-86
2021/04/29 01:47:18;;;;;;;7.80;4.40;;;14.00;88.40;;;13.24;70.86;97025.97;5100330;28;20759;-86
2021/04/29 01:49:46;;;;;;;6.03;4.45;;;14.10;87.20;;;13.24;70.94;97035.81;5083518;28;20566;-86
2021/04/29 01:52:12;;;;;;;4.22;3.53;;;14.00;87.30;;;13.28;70.41;97034.22;5101812;28;20406;-86
2021/04/29 01:54:40;;;;;;;5.35;3.63;;;14.00;87.50;;;13.22;70.85;97035.31;5100548;28;20410;-86
2021/04/29 01:57:07;;;;;;;5.05;3.75;;;14.00;87.00;;;13.22;71.38;97040.63;5083507;28;20402;-86
2021/04/29 01:59:33;;;;;;;4.57;3.30;;;13.90;87.50;;;13.18;71.07;97038.50;5100704;28;20428;-85
2021/04/29 02:02:00;;;;;;;4.30;3.30;;;14.00;87.30;;;13.06;70.95;97042.56;5084289;28;20417;-86
2021/04/29 02:04:27;;;;;;;4.43;3.15;;;13.90;87.10;;;13.05;71.71;97051.59;5084167;28;20486;-86
2021/04/29 02:06:53;;;;;;;4.03;3.20;;;13.80;87.70;;;13.08;71.33;97045.75;5100233;28;20412;-86
2021/04/29 02:09:19;;;;;;;4.78;3.20;;;13.80;87.60;;;13.16;71.01;97045.97;5101920;28;20722;-85
2021/04/29 02:11:53;;;;;;;5.43;3.03;;;13.90;87.60;;;13.08;70.88;97057.13;5084637;28;20413;-86
2021/04/29 02:14:29;;;;;;;5.38;2.95;;;13.90;87.00;;;13.10;70.85;97055.00;5102854;28;20482;-86
2021/04/29 02:17:01;;;;;;;4.50;2.72;;;13.90;86.90;;;13.06;70.28;97056.63;5101097;28;20429;-85
2021/04/29 02:19:28;;;;;;;3.75;3.28;;;13.90;86.40;;;13.16;70.45;97064.56;5099938;28;20434;-84
2021/04/29 02:21:55;;;;;;;4.93;2.40;;;13.90;87.00;;;12.91;70.87;97061.25;5082048;28;20402;-84
2021/04/29 02:24:23;;;;;;;2.90;2.43;;;13.80;86.70;;;12.94;70.97;97068.66;5099358;28;20440;-85
2021/04/29 02:26:50;;;;;;;2.30;2.05;;;13.70;87.00;;;13.02;70.78;97065.41;5101569;28;20509;-85
2021/04/29 02:29:18;;;;;;;2.83;1.95;;;13.80;87.20;;;12.95;70.53;97067.59;5101154;28;20414;-86
2021/04/29 02:31:45;;;;;;;2.47;2.00;;;13.80;86.70;;;12.95;70.57;97070.25;5101918;28;20820;-86
2021/04/29 02:34:13;;;;;;;1.95;1.70;;;13.70;86.80;;;13.04;70.46;97069.41;5107060;28;20421;-85
2021/04/29 02:36:40;;;;;;;2.00;1.70;;;13.80;86.80;;;12.96;69.65;97072.63;5104960;28;20995;-86
2021/04/29 02:39:07;;;;;;;2.45;1.40;;;13.80;85.70;;;12.98;69.55;97065.19;5086017;28;20541;-85
2021/04/29 02:41:34;;;;;;;1.35;1.20;;;13.80;85.70;;;13.10;69.14;97075.47;5088781;28;20430;-84
2021/04/29 02:44:01;;;;;;;1.20;1.10;;;13.80;85.70;;;13.08;69.46;97073.09;5105141;28;20417;-84
2021/04/29 02:46:28;;;;;;;1.80;1.38;;;13.80;85.30;;;13.23;69.11;97080.22;5086207;28;20420;-84
2021/04/29 02:48:54;;;;;;;1.40;1.30;;;13.90;85.60;;;13.16;68.77;97085.03;5103359;28;20410;-83
2021/04/29 02:51:21;;;;;;;2.10;1.30;;;14.00;85.00;;;12.87;69.36;97100.81;5103232;28;20402;-84
2021/04/29 02:53:48;;;;;;;1.90;1.30;;;13.70;85.20;;;12.06;73.74;97126.78;5085536;28;20417;-85
2021/04/29 02:56:15;;;;;;;3.85;2.67;;;13.10;89.30;;;11.65;78.30;97124.88;5103350;28;20737;-85
2021/04/29 02:58:43;;;;;;;4.43;2.95;;;12.60;92.30;;;11.62;80.46;97140.53;5105695;28;20843;-85
2021/04/29 03:01:10;;;;;;;2.95;2.33;;;12.40;94.00;;;11.47;79.05;97140.50;5107509;28;20405;-85
2021/04/29 03:03:37;;;;;;;2.70;2.15;;;12.40;93.10;;;11.46;78.35;97134.41;5108874;28;20405;-85
2021/04/29 03:06:04;;;;;;;1.90;1.80;;;12.30;92.70;;;11.44;78.24;97141.00;5107918;28;20416;-86
2021/04/29 03:08:32;;;;;;;1.95;1.70;;;12.30;92.50;;;11.44;78.09;97152.41;5090616;28;20715;-85
2021/04/29 03:10:58;;;;;;;1.75;1.50;;;12.30;92.60;;;11.45;77.39;97140.75;5107297;28;20412;-85
2021/04/29 03:13:25;;;;;;;3.05;2.47;;;12.30;92.20;;;11.64;77.35;97147.16;5105933;28;20421;-85
2021/04/29 03:15:51;;;;;;;1.93;1.50;;;12.40;92.30;;;11.73;77.02;97150.06;5086906;28;20727;-84
2021/04/29 03:18:18;;;;;;;3.42;1.60;;;12.50;92.10;;;11.71;76.88;97146.91;5104594;28;20516;-85
2021/04/29 03:20:44;;;;;;;2.72;1.50;;;12.50;92.00;;;11.74;77.11;97159.66;5103311;28;20447;-85
2021/04/29 03:23:10;;;;;;;2.17;1.33;;;12.50;92.10;;;11.62;75.90;97159.88;5101637;28;20522;-85
2021/04/29 03:25:37;;;;;;;1.48;1.38;;;12.50;91.40;;;11.81;75.99;97156.72;5102907;28;20787;-85
2021/04/29 03:28:04;;;;;;;1.48;1.38;;;12.60;91.70;;;11.82;75.31;97161.78;5084125;28;20414;-85
2021/04/29 03:30:31;;;;;;;1.63;1.20;;;12.70;91.10;;;11.80;75.26;97155.94;5103082;28;20447;-85
2021/04/29 03:32:58;;;;;;;1.55;1.30;;;12.70;91.10;;;11.86;75.47;97167.38;5102417;28;20416;-85
2021/04/29 03:35:24;;;;;;;2.10;1.25;;;12.70;91.00;;;11.96;74.68;97175.31;5102682;28;20809;-86
2021/04/29 03:37:50;;;;;;;1.77;1.20;;;12.80;90.90;;;12.01;73.11;97176.13;5102393;28;20416;-86
2021/04/29 03:40:17;;;;;;;1.40;1.10;;;12.80;90.00;;;11.65;73.21;97177.13;5103179;28;20497;-84
2021/04/29 03:42:44;;;;;;;1.20;1.10;;;12.60;89.80;;;11.57;74.01;97185.59;5102239;28;20409;-85
2021/04/29 03:45:11;;;;;;;1.27;1.17;;;12.40;90.50;;;11.55;73.85;97190.34;5100214;28;20409;-85
2021/04/29 03:47:37;;;;;;;1.10;1.00;;;12.40;90.40;;;11.42;71.51;97194.31;5084606;28;20413;-85
2021/04/29 03:50:05;;;;;;;1.58;1.48;;;12.40;88.00;;;11.57;72.37;97196.19;5110162;28;20470;-85
2021/04/29 03:52:33;;;;;;;1.88;1.20;;;12.40;89.10;;;11.62;72.10;97204.16;5095328;28;20418;-84
2021/04/29 03:54:59;;;;;;;1.63;1.33;;;12.50;88.90;;;11.76;71.73;97204.47;5111483;28;20787;-85
2021/04/29 03:57:25;;;;;;;2.92;1.15;;;12.60;88.50;;;11.63;70.89;97203.91;5109921;28;20482;-83
2021/04/29 03:59:52;;;;;;;0.93;0.90;;;12.50;87.50;;;11.56;70.74;97205.19;5110975;28;20437;-84
2021/04/29 04:02:19;;;;;;;3.00;1.40;;;12.40;87.00;;;11.61;69.87;97202.56;5105407;28;20405;-84
2021/04/29 04:04:45;;;;;;;1.58;1.25;;;12.40;86.70;;;11.34;70.21;97205.41;5103527;28;20418;-85
2021/04/29 04:07:11;;;;;;;1.40;1.30;;;12.30;86.20;;;11.21;70.22;97205.88;5103765;28;20402;-84
2021/04/29 04:09:37;;;;;;;1.90;1.50;;;12.10;86.50;;;11.30;70.50;97208.81;5102008;28;20401;-84
2021/04/29 04:12:05;;;;;;;2.15;1.50;;;12.10;87.20;;;11.17;69.70;97204.81;5102798;28;20401;-85
2021/04/29 04:14:31;;;;;;;1.60;1.50;;;12.10;86.00;;;11.33;69.94;97209.09;5102255;28;20722;-85
2021/04/29 04:16:58;;;;;;;1.60;1.30;;;12.10;86.60;;;11.37;71.02;97226.06;5102497;28;20406;-85
2021/04/29 04:19:24;;;;;;;1.90;1.30;;;12.20;87.30;;;11.38;70.59;97234.81;5101725;28;20418;-84
2021/04/29 04:21:51;;;;;;;2.20;1.40;;;12.30;87.00;;;11.45;70.06;97228.22;5100834;28;20402;-85
2021/04/29 04:24:17;;;;;;;1.88;1.63;;;12.30;86.40;;;11.36;70.06;97229.78;5083507;28;20750;-85
2021/04/29 04:26:43;;;;;;;3.58;1.20;;;12.30;85.90;;;11.47;69.91;97243.88;5083795;28;20543;-85
2021/04/29 04:29:09;;;;;;;4.77;1.40;;;12.30;86.10;;;11.41;70.10;97242.25;5101903;28;20413;-85
2021/04/29 04:31:38;;;;;;;3.10;1.60;;;12.30;86.00;;;11.47;70.02;97241.22;5101513;28;20410;-82
2021/04/29 04:34:06;;;;;;;4.13;1.70;;;12.30;86.30;;;11.49;70.32;97242.56;5100542;28;20486;-81
2021/04/29 04:36:32;;;;;;;3.35;1.45;;;12.40;86.50;;;11.57;70.16;97241.25;5082635;28;20559;-81
2021/04/29 04:38:58;;;;;;;2.65;1.48;;;12.40;86.40;;;11.55;69.29;97241.50;5101017;28;20474;-80
2021/04/29 04:41:24;;;;;;;2.77;1.33;;;12.40;85.60;;;11.58;69.82;97237.53;5101113;28;20447;-82
2021/04/29 04:43:51;;;;;;;3.22;1.35;;;12.40;86.00;;;11.63;69.62;97241.00;5101222;28;20414;-80
2021/04/29 04:46:17;;;;;;;2.22;1.38;;;12.40;85.90;;;11.60;70.46;97244.19;5101350;28;20406;-81
2021/04/29 04:48:43;;;;;;;1.83;1.60;;;12.50;86.10;;;11.51;69.83;97240.44;5101076;28;20449;-83
2021/04/29 04:51:11;;;;;;;1.88;1.52;;;12.40;85.60;;;11.56;69.76;97243.13;5101384;28;20437;-81
2021/04/29 04:53:37;;;;;;;1.40;1.30;;;12.40;85.90;;;11.54;69.98;97245.22;5083786;28;20461;-82
2021/04/29 04:56:04;;;;;;;2.00;1.80;;;12.40;86.00;;;11.45;70.07;97259.22;5100851;28;20545;-80
2021/04/29 04:58:30;;;;;;;3.05;1.70;;;12.40;85.90;;;11.57;69.22;97254.53;5082811;28;20507;-85
2021/04/29 05:00:56;;;;;;;3.70;1.80;;;12.40;85.70;;;11.72;68.29;97262.53;5101613;28;20417;-85
2021/04/29 05:03:23;;;;;;;3.83;1.70;;;12.50;84.90;;;11.81;68.44;97266.25;5081597;28;20824;-85
2021/04/29 05:05:49;;;;;;;3.28;1.77;;;12.50;84.50;;;11.85;67.89;97270.00;5100270;28;20483;-85
2021/04/29 05:08:16;;;;;;;3.08;1.90;;;12.60;83.90;;;11.97;66.86;97283.00;5100073;28;20417;-85
2021/04/29 05:10:42;;;;;;;3.28;1.80;;;12.70;83.10;;;11.96;67.04;97279.56;5099771;28;20796;-84
2021/04/29 05:13:09;;;;;;;3.20;1.90;;;12.80;82.90;;;12.16;66.99;97281.47;5098819;28;20409;-84
2021/04/29 05:15:36;;;;;;;2.88;1.70;;;12.90;83.40;;;12.06;66.23;97285.97;5095893;28;20845;-83
2021/04/29 05:18:04;;;;;;;4.17;2.37;;;13.00;81.70;;;12.11;66.14;97286.75;5098736;28;20421;-84
2021/04/29 05:20:31;;;;;;;3.88;1.85;;;12.90;82.10;;;12.26;64.93;97284.13;5079667;28;20424;-85
2021/04/29 05:22:58;;;;;;;3.90;1.90;;;13.10;80.70;;;12.30;64.63;97295.03;5097466;28;20441;-86
2021/04/29 05:25:25;;;;;;;3.38;1.90;;;13.10;80.40;;;12.34;65.15;97285.47;5097922;28;20458;-84
2021/04/29 05:27:53;;;;;;;5.60;2.13;;;13.10;81.00;;;12.24;64.39;97290.78;5082187;28;20445;-83
2021/04/29 05:30:21;;;;;;;4.00;2.08;;;13.10;79.80;;;12.09;65.18;97288.91;5100919;28;20489;-83
2021/04/29 05:32:47;;;;;;;4.93;2.28;;;12.90;80.40;;;12.20;64.81;97281.72;5100318;28;20398;-85
2021/04/29 05:35:14;;;;;;;5.72;2.63;;;13.00;80.60;;;12.26;63.59;97284.13;5081531;28;20409;-85
2021/04/29 05:37:40;;;;;;;6.65;3.15;;;13.00;79.40;;;12.27;63.99;97277.75;5100441;28;20406;-84
2021/04/29 05:40:08;;;;;;;6.28;2.67;;;13.00;79.40;;;12.21;63.54;97281.47;5083270;28;20426;-86
2021/04/29 05:42:35;;;;;;;5.65;2.80;;;13.10;79.00;;;12.20;63.52;97279.06;5100886;28;20497;-85
2021/04/29 05:45:03;;;;;;;5.72;2.47;;;13.00;79.00;;;12.07;64.13;97282.25;5081983;28;20440;-84
2021/04/29 05:47:29;;;;;;;4.57;2.78;;;12.90;79.30;;;11.99;64.54;97276.41;5081566;28;20418;-85
2021/04/29 05:49:56;;;;;;;6.10;2.85;;;12.80;80.00;;;12.05;65.17;97284.34;5082446;28;20414;-83
2021/04/29 05:52:22;;;;;;;7.50;3.00;;;12.80;80.80;;;12.01;65.10;97281.44;5099692;28;20406;-83
2021/04/29 05:54:54;;;;;;;4.88;2.80;;;12.80;81.00;;;12.11;64.39;97285.97;5105300;28;20444;-83
2021/04/29 05:57:20;;;;;;;7.53;2.90;;;12.90;79.90;;;12.21;63.11;97294.75;5082035;28;20470;-83
2021/04/29 05:59:48;;;;;;;7.53;3.70;;;13.00;79.10;;;12.21;63.06;97292.09;5099380;28;21024;-84
2021/04/29 06:02:14;;;;;;;9.13;2.70;;;13.00;78.70;;;12.22;63.52;97300.84;5082358;28;20414;-84
2021/04/29 06:04:41;;;;;;;7.90;3.13;;;13.00;78.60;;;12.26;62.78;97304.56;5086075;28;20453;-84
2021/04/29 06:07:07;;;;;;;5.37;2.83;;;13.00;78.20;;;12.30;61.83;97303.78;5105656;28;20544;-85
2021/04/29 06:09:33;;;;;;;6.43;3.13;;;13.10;77.40;;;12.32;62.08;97304.31;5082112;28;20406;-82
2021/04/29 06:12:00;;;;;;;11.90;3.42;;;13.10;77.40;;;12.58;61.48;97309.63;5100658;28;20405;-84
2021/04/29 06:14:27;;;;;;;5.45;2.80;;;13.20;77.10;;;12.46;61.51;97296.63;5079512;28;20418;-84
2021/04/29 06:16:54;;;;;;;11.45;3.33;;;13.30;76.30;;;12.66;61.23;97295.84;5080328;28;20803;-83
2021/04/29 06:19:21;;;;;;;8.52;2.90;;;13.40;76.80;;;12.70;60.69;97294.25;5105129;28;20441;-83
2021/04/29 06:21:47;;;;;;;7.18;2.92;;;13.50;75.70;;;12.92;60.26;97292.09;5105491;28;20410;-86
2021/04/29 06:24:13;;;;;;;8.60;3.30;;;13.60;75.70;;;12.88;59.89;97288.38;5104455;28;20422;-84
2021/04/29 06:26:41;;;;;;;8.43;3.08;;;13.60;74.70;;;13.04;59.87;97286.50;5105728;28;20402;-79
2021/04/29 06:29:07;;;;;;;11.95;3.42;;;13.70;75.10;;;13.13;59.93;97280.41;5104199;28;20418;-83
2021/04/29 06:31:39;;;;;;;6.35;2.88;;;13.80;75.10;;;13.28;59.41;97282.22;5087543;28;20402;-80
2021/04/29 06:34:28;;;;;;;9.93;3.58;;;14.00;74.50;;;13.45;58.97;97285.38;5105377;28;20409;-82
2021/04/29 06:37:33;;;;;;;10.32;3.35;;;14.10;73.60;;;13.50;58.34;97292.50;5087411;28;20491;-82
2021/04/29 06:40:36;;;;;;;8.38;3.58;;;14.20;73.30;;;13.29;58.37;97285.69;5089714;28;20459;-83
2021/04/29 06:43:10;;;;;;;8.63;3.58;;;14.20;72.90;;;13.29;58.09;97286.47;5100319;28;20444;-83
2021/04/29 06:46:17;;;;;;;9.45;3.42;;;14.10;72.70;;;13.43;58.34;97279.50;5112670;28;20413;-81
2021/04/29 06:49:02;;;;;;;10.05;3.70;;;14.20;72.70;;;13.47;58.34;97280.53;5109770;28;20446;-83
2021/04/29 06:51:41;;;;;;;12.40;3.97;;;14.20;73.00;;;13.94;56.78;97279.28;5092474;28;20571;-85
2021/04/29 06:54:16;;;;;;;10.43;4.25;;;14.50;72.70;;;14.15;55.78;97286.06;5110797;28;20420;-85
2021/04/29 06:56:45;;;;;;;13.05;4.35;;;14.70;70.90;;;14.15;55.77;97277.28;5090027;28;20409;-84
2021/04/29 06:59:18;;;;;;;10.55;4.65;;;14.90;70.20;;;14.16;55.55;97273.53;5091975;28;20893;-83
2021/04/29 07:01:47;;;;;;;7.85;4.00;;;14.90;70.60;;;14.48;54.69;97289.06;5110794;28;20416;-82
2021/04/29 07:04:13;;;;;;;15.57;6.43;;;15.00;69.30;;;14.51;55.01;97291.19;5113992;28;20402;-82
2021/04/29 07:07:25;;;;;;;7.40;4.30;;;15.10;69.20;;;14.59;54.60;97295.91;5112832;28;20450;-82
2021/04/29 07:10:08;;;;;;;8.75;4.95;;;15.20;69.00;;;14.55;54.22;97302.88;5083401;28;20418;-83
2021/04/29 07:12:37;;;;;;;7.43;4.37;;;15.20;68.00;;;14.44;54.84;97307.47;5090196;28;20428;-85
2021/04/29 07:15:06;;;;;;;10.68;5.07;;;15.10;68.60;;;14.06;56.17;97298.34;5100667;28;20425;-83
2021/04/29 07:17:44;;;;;;;9.70;4.67;;;14.90;69.80;;;14.14;55.70;97310.28;5098990;28;20410;-84
2021/04/29 07:20:16;;;;;;;8.75;4.85;;;14.80;69.60;;;14.36;55.63;97310.69;5086807;28;20428;-85
2021/04/29 07:22:46;;;;;;;10.25;4.43;;;15.00;70.00;;;14.00;56.33;97306.66;5107745;28;20409;-84
2021/04/29 07:25:15;;;;;;;9.00;4.90;;;14.80;69.60;;;13.90;56.41;97318.97;5110828;28;20504;-84
2021/04/29 07:27:42;;;;;;;12.80;5.57;;;14.70;70.40;;;13.83;56.68;97315.00;5086510;28;20429;-85
2021/04/29 07:30:12;;;;;;;13.07;5.03;;;14.60;70.80;;;13.72;57.19;97316.09;5088080;28;20441;-84
2021/04/29 07:32:38;;;;;;;8.40;5.35;;;14.50;71.20;;;13.93;56.49;97317.59;5104574;28;20433;-84
2021/04/29 07:35:06;;;;;;;10.38;5.38;;;14.60;71.10;;;13.92;55.54;97321.31;5105485;28;20410;-85
2021/04/29 07:37:32;;;;;;;10.93;5.30;;;14.70;69.60;;;13.73;55.88;97305.19;5088911;28;20418;-84
2021/04/29 07:40:00;;;;;;;12.15;5.47;;;14.60;69.70;;;13.65;56.52;97307.63;5091534;28;20418;-84
2021/04/29 07:42:27;;;;;;;9.50;5.40;;;14.40;70.50;;;13.77;56.43;97322.19;5108596;28;20401;-83
2021/04/29 07:44:53;;;;;;;12.23;5.20;;;14.50;70.70;;;13.84;56.45;97324.53;5114381;28;20401;-83
2021/04/29 07:47:19;;;;;;;10.52;4.85;;;14.50;70.70;;;14.06;55.26;97324.97;5117046;28;20405;-83
2021/04/29 07:49:45;;;;;;;10.02;5.50;;;14.70;69.70;;;14.08;54.53;97325.50;5117348;28;20502;-83
2021/04/29 07:52:12;;;;;;;13.43;5.03;;;14.80;68.60;;;13.71;55.87;97328.59;5115205;28;20419;-84
2021/04/29 07:54:38;;;;;;;7.55;4.95;;;14.60;69.50;;;13.62;56.51;97326.75;5113177;28;20420;-85
2021/04/29 07:57:06;;;;;;;12.73;5.72;;;14.40;70.20;;;13.52;57.09;97325.75;5113239;28;20400;-84
2021/04/29 07:59:33;;;;;;;11.85;5.50;;;14.30;71.10;;;13.92;56.19;97337.28;5109851;28;20489;-84
2021/04/29 08:02:00;;;;;;;14.10;6.05;;;14.50;71.00;;;14.20;54.87;97335.84;5112135;28;20482;-84
2021/04/29 08:04:29;;;;;;;9.98;5.20;;;14.90;69.50;;;14.59;53.68;97331.31;5114711;28;20402;-84
2021/04/29 08:06:56;;;;;;;15.02;6.10;;;15.20;67.70;;;14.25;53.72;97333.13;5097231;28;20415;-85
2021/04/29 08:09:28;;;;;;;11.60;6.13;;;15.00;67.30;;;14.20;52.87;97333.97;5108271;28;20410;-88
2021/04/29 08:11:54;;;;;;;10.82;5.28;;;15.00;66.00;;;14.25;53.03;97331.28;5091100;28;20819;-84
2021/04/29 08:14:21;;;;;;;10.80;5.80;;;15.10;66.20;;;14.19;54.21;97335.03;5092675;28;20422;-83
2021/04/29 08:16:50;;;;;;;11.38;6.28;;;14.90;67.80;;;14.24;53.88;97345.66;5107113;28;20555;-84
2021/04/29 08:19:16;;;;;;;12.02;6.90;;;14.90;67.70;;;14.59;51.88;97339.31;5093750;28;20410;-84
2021/04/29 08:21:43;;;;;;;10.65;6.60;;;15.20;66.10;;;14.82;51.44;97339.69;5116404;28;20406;-85
2021/04/29 08:24:09;;;;;;;15.13;6.50;;;15.40;64.80;;;14.50;51.82;97343.66;5098781;28;20421;-85
2021/04/29 08:26:37;;;;;;;13.05;7.18;;;15.40;64.40;;;14.49;52.29;97339.41;5099909;28;20426;-84
2021/04/29 08:29:46;;;;;;;11.70;6.47;;;15.10;65.80;;;14.85;51.11;97339.94;5099763;28;20449;-86
2021/04/29 08:32:13;;;;;;;11.38;6.50;;;15.50;64.90;;;14.72;51.61;97335.25;5115962;28;20405;-84
2021/04/29 08:35:14;;;;;;;13.02;6.55;;;15.50;64.40;;;14.87;51.34;97329.78;5117714;28;20420;-85
2021/04/29 08:37:41;;;;;;;13.13;6.32;;;15.50;64.40;;;15.07;51.01;97326.94;5115054;28;20488;-84
2021/04/29 08:40:11;;;;;;;13.05;6.72;;;15.70;64.00;;;15.59;49.63;97332.56;5109572;28;20487;-86
2021/04/29 08:42:38;;;;;;;13.30;6.60;;;16.10;63.20;;;15.82;47.84;97332.56;5093792;28;20441;-84
2021/04/29 08:45:09;;;;;;;15.48;6.70;;;16.50;60.60;;;16.04;47.26;97339.22;5098099;28;20414;-84
2021/04/29 08:47:36;;;;;;;13.65;6.90;;;16.70;59.70;;;15.97;48.23;97339.59;5097960;28;20447;-85
2021/04/29 08:50:12;;;;;;;14.25;6.50;;;16.60;60.50;;;15.66;48.83;97341.81;5115704;28;20445;-84
2021/04/29 08:52:39;;;;;;;12.93;7.20;;;16.50;60.40;;;15.71;48.29;97349.00;5094374;28;20535;-86
2021/04/29 08:55:08;;;;;;;14.68;7.15;;;16.50;60.40;;;15.63;49.07;97341.63;5112349;28;20434;-85
2021/04/29 08:57:34;;;;;;;13.93;7.25;;;16.30;61.40;;;15.75;48.01;97334.78;5112496;28;20408;-84
2021/04/29 09:00:06;;;;;;;17.10;7.80;;;16.40;60.10;;;15.78;47.57;97344.09;5110476;28;20414;-86
2021/04/29 09:02:34;;;;;;;19.35;8.40;;;16.40;59.60;;;15.81;47.60;97338.97;5109464;28;20486;-86
2021/04/29 09:05:15;;;;;;;16.42;7.63;;;16.50;59.60;;;15.95;47.48;97338.28;5092588;28;20445;-85
2021/04/29 09:07:53;;;;;;;11.57;7.53;;;16.60;59.50;;;15.71;47.65;97343.66;5093046;28;20449;-85
2021/04/29 09:10:26;;;;;;;14.63;7.55;;;16.40;59.40;;;15.35;48.51;97337.84;5110658;28;20498;-86
2021/04/29 09:12:52;;;;;;;13.93;6.73;;;16.20;59.70;;;14.97;48.78;97334.22;5108218;28;20509;-82
2021/04/29 09:15:28;;;;;;;13.87;7.73;;;15.80;60.40;;;14.96;49.12;97356.66;5111229;28;20414;-86
2021/04/29 09:18:08;;;;;;;12.48;7.50;;;15.70;60.50;;;14.81;48.74;97343.44;5111569;28;20428;-85
2021/04/29 09:20:35;;;;;;;15.43;7.82;;;15.60;60.30;;;14.88;49.08;97342.06;5111494;28;20418;-86
2021/04/29 09:23:06;;;;;;;14.48;6.78;;;15.60;61.00;;;14.83;49.24;97355.41;5111882;28;20424;-86
2021/04/29 09:25:34;;;;;;;18.20;7.47;;;15.60;61.10;;;14.57;50.45;97364.66;5112448;28;20463;-86
2021/04/29 09:28:01;;;;;;;14.98;7.38;;;15.40;63.10;;;14.43;53.21;97377.00;5095928;28;20522;-85
2021/04/29 09:30:30;;;;;;;16.08;7.22;;;15.30;65.90;;;13.49;58.91;97379.47;5112770;28;20469;-85
2021/04/29 09:33:03;;;;;;;13.33;7.53;;;14.50;71.90;;;12.72;63.97;97385.84;5098859;28;20501;-86
2021/04/29 09:35:48;;;;;;;15.55;9.93;;;13.80;77.90;;;12.50;70.31;97413.72;5097713;28;20406;-85
2021/04/29 09:38:14;;;;;;;15.07;9.10;;;13.30;86.20;;;12.35;70.40;97411.81;5108776;28;20473;-84
2021/04/29 09:40:44;;;;;;;13.65;7.70;;;13.10;86.60;;;12.59;67.95;97404.16;5091573;28;20544;-85
2021/04/29 09:43:10;;;;;;;11.02;7.03;;;13.30;84.00;;;12.76;65.38;97399.44;5091499;28;20527;-85
2021/04/29 09:45:38;;;;;;;10.48;7.22;;;13.50;80.60;;;12.80;63.36;97403.13;5091985;28;20448;-85
2021/04/29 09:48:07;;;;;;;14.77;7.57;;;13.60;79.00;;;12.86;64.87;97401.28;5108493;28;20862;-85
2021/04/29 09:50:35;;;;;;;13.82;8.18;;;13.70;80.00;;;12.75;65.03;97409.25;5092720;28;20421;-86
2021/04/29 09:53:53;;;;;;;11.63;6.90;;;13.60;80.40;;;12.85;63.84;97397.03;5095991;28;20421;-84
2021/04/29 09:57:07;;;;;;;13.43;7.57;;;13.60;79.90;;;12.79;64.39;97389.06;5114900;28;20401;-86
2021/04/29 10:00:17;;;;;;;11.73;7.30;;;13.60;79.50;;;13.15;63.39;97381.94;5094978;28;20433;-86
2021/04/29 10:02:45;;;;;;;13.45;8.38;;;13.90;80.10;;;13.64;62.52;97370.66;5093814;28;20429;-85
2021/04/29 10:05:12;;;;;;;10.38;7.10;;;14.20;79.50;;;14.08;60.04;97376.06;5095690;28;20405;-86
2021/04/29 10:07:38;;;;;;;13.20;7.40;;;14.70;76.30;;;14.35;60.06;97359.72;5112219;28;20409;-86
2021/04/29 10:10:07;;;;;;;14.95;7.95;;;14.90;75.90;;;14.89;58.82;97370.25;5095873;28;20406;-85
2021/04/29 10:12:34;;;;;;;9.15;6.68;;;15.40;75.30;;;15.18;57.85;97364.97;5112495;28;20405;-85
2021/04/29 10:15:00;;;;;;;9.75;6.65;;;15.70;73.70;;;15.43;59.15;97366.59;5095675;28;20456;-86
2021/04/29 10:17:27;;;;;;;13.35;7.18;;;16.00;74.60;;;15.03;59.54;97370.44;5094220;28;20394;-84
2021/04/29 10:20:38;;;;;;;13.45;7.70;;;15.90;73.80;;;14.85;61.14;97366.59;5092452;28;20442;-85
2021/04/29 10:23:10;;;;;;;10.02;7.32;;;15.50;76.10;;;15.36;58.97;97363.47;5088309;28;20442;-86
2021/04/29 10:25:37;;;;;;;12.57;6.78;;;15.90;75.10;;;15.02;59.21;97356.31;5103539;28;20416;-86
2021/04/29 10:28:05;;;;;;;12.68;7.05;;;15.90;74.10;;;15.29;57.43;97357.66;5102661;28;20391;-85
2021/04/29 10:30:35;;;;;;;11.03;7.10;;;15.90;73.30;;;15.14;56.96;97353.28;5086342;28;20454;-85
2021/04/29 10:33:14;;;;;;;13.07;7.30;;;15.90;72.50;;;15.15;56.69;97354.88;5088197;28;20445;-85
2021/04/29 10:35:55;;;;;;;11.87;6.83;;;15.90;71.80;;;15.09;58.30;97346.13;5088401;28;20528;-85
2021/04/29 10:38:50;;;;;;;12.82;7.45;;;15.80;73.40;;;15.43;58.31;97355.91;5109066;28;20413;-85
2021/04/29 10:41:20;;;;;;;11.60;6.93;;;16.00;74.40;;;15.66;55.74;97355.16;5089775;28;20418;-86
2021/04/29 10:43:48;;;;;;;10.52;6.82;;;16.30;71.10;;;15.88;56.54;97362.66;5088780;28;20405;-86
2021/04/29 10:46:30;;;;;;;9.98;5.40;;;16.40;71.70;;;14.99;57.56;97366.72;5106404;28;20432;-84
2021/04/29 10:49:00;;;;;;;11.25;6.15;;;15.90;71.20;;;14.90;57.24;97363.06;5090098;28;20422;-87